createdAt,value
2022-11-13T08:44:47.303Z,6.97
2022-11-13T08:55:03.204Z,6.93
2022-11-13T09:05:19.385Z,6.85
2022-11-13T09:15:38.835Z,6.78
2022-11-13T09:25:55.088Z,6.70
2022-11-13T09:36:13.210Z,6.95
2022-11-13T09:46:51.549Z,7.43
2022-11-13T09:57:42.962Z,7.10
2022-11-13T10:08:01.461Z,6.45
2022-11-13T10:18:24.160Z,7.70
2022-11-13T10:28:49.913Z,7.15
2022-11-13T10:39:09.154Z,6.35
2022-11-13T10:59:45.628Z,3.00
2022-11-13T11:10:01.333Z,3.42
2022-11-13T11:20:23.390Z,3.13
2022-11-13T11:30:50.704Z,2.90
2022-11-13T11:41:16.602Z,2.42
2022-11-13T11:51:49.233Z,2.85
2022-11-13T12:02:33.082Z,2.45
2022-11-13T12:13:04.265Z,4.90
2022-11-13T12:23:23.077Z,5.90
2022-11-13T12:34:01.069Z,5.97
2022-11-13T12:44:23.629Z,5.03
2022-11-13T12:54:39.327Z,4.90
2022-11-13T13:05:10.693Z,3.55
2022-11-13T13:15:37.720Z,2.10
2022-11-13T13:26:19.594Z,1.92
2022-11-13T13:36:41.271Z,2.70
2022-11-13T13:46:58.088Z,2.05
2022-11-13T13:57:16.330Z,2.60
2022-11-13T14:17:49.885Z,2.55
2022-11-13T14:28:05.693Z,2.17
2022-11-13T14:38:27.604Z,2.08
2022-11-13T14:48:54.555Z,2.40
2022-11-13T14:59:19.391Z,2.65
2022-11-13T15:09:35.566Z,3.30
2022-11-13T15:19:55.123Z,3.85
2022-11-13T15:30:11.291Z,3.38
2022-11-13T15:40:27.081Z,4.07
2022-11-13T15:50:42.907Z,4.45
2022-11-13T16:00:58.347Z,4.20
2022-11-13T16:11:19.403Z,4.68
2022-11-13T16:21:35.011Z,4.68
2022-11-13T16:31:51.016Z,8.18
2022-11-13T16:42:06.787Z,5.85
2022-11-13T16:52:22.629Z,4.80
2022-11-13T17:02:39.287Z,4.60
2022-11-13T17:12:55.451Z,4.82
2022-11-13T17:23:16.130Z,5.22
2022-11-13T17:33:32.751Z,10.38
2022-11-13T17:43:48.473Z,9.57
2022-11-13T17:54:04.376Z,9.57
2022-11-13T18:04:19.839Z,6.35
2022-11-13T18:14:35.663Z,20.05
2022-11-13T18:24:51.668Z,21.45
2022-11-13T18:35:08.076Z,36.55
2022-11-13T18:45:24.024Z,22.63
2022-11-13T18:55:39.867Z,14.70
2022-11-13T19:05:55.772Z,9.63
2022-11-13T19:16:35.731Z,13.32
2022-11-13T19:26:51.839Z,7.07
2022-11-13T19:37:07.760Z,7.50
2022-11-13T19:47:23.591Z,9.02
2022-11-13T19:57:44.934Z,7.15
2022-11-13T20:08:01.795Z,8.35
2022-11-13T20:18:17.743Z,8.18
2022-11-13T20:28:33.930Z,10.60
2022-11-13T20:38:54.891Z,10.85
2022-11-13T20:49:10.595Z,10.50
2022-11-13T20:59:26.523Z,8.20
2022-11-13T21:09:45.981Z,8.23
2022-11-13T21:20:06.076Z,8.98
2022-11-13T21:30:22.766Z,9.40
2022-11-13T21:40:38.793Z,8.65
2022-11-13T21:50:54.943Z,12.40
2022-11-13T22:01:12.279Z,11.27
2022-11-13T22:11:31.498Z,8.87
2022-11-13T22:21:47.742Z,8.07
2022-11-13T22:32:03.808Z,8.23
2022-11-13T22:42:19.948Z,10.82
2022-11-13T22:52:35.497Z,11.88
2022-11-13T23:02:51.287Z,14.55
2022-11-13T23:13:07.319Z,13.52
2022-11-13T23:23:23.180Z,15.75
2022-11-13T23:33:40.384Z,17.20
2022-11-13T23:44:11.286Z,15.68
2022-11-13T23:54:27.092Z,15.05
